Time;durP1;ratioP1;P1;durP2;ratioP2;P2;SDS_P1;SDS_P2;PMS_P1;PMS_P2;Temp;Humidity;BMP_temperature;BMP_pressure;BME280_temperature;BME280_humidity;BME280_pressure;Samples;Min_cycle;Max_cycle;Signal;HPM_P1;HPM_P2
2022/12/05 00:02:00;;;;;;;37.90;19.77;;;0.60;99.90;;;;;;10436599;28;20292;-83
2022/12/05 00:07:21;;;;;;;34.07;19.33;;;0.40;99.90;;;;;;10467061;28;20199;-82
2022/12/05 00:12:43;;;;;;;32.20;18.63;;;0.40;99.90;;;;;;10491324;28;20197;-83
2022/12/05 00:18:04;;;;;;;33.77;19.90;;;0.40;99.90;;;;;;10476673;28;20530;-82
2022/12/05 00:23:25;;;;;;;32.20;17.90;;;0.40;99.90;;;;;;10490143;28;20323;-84
2022/12/05 00:28:47;;;;;;;39.23;21.30;;;0.50;99.90;;;;;;10417554;28;20273;-81
2022/12/05 00:34:09;;;;;;;40.70;19.07;;;0.50;99.90;;;;;;10466423;28;20492;-82
2022/12/05 00:39:30;;;;;;;33.90;18.67;;;0.40;99.90;;;;;;10448709;28;20205;-82
2022/12/05 00:44:52;;;;;;;30.83;17.93;;;0.50;99.90;;;;;;10407736;28;20251;-82
2022/12/05 00:50:13;;;;;;;35.17;18.63;;;0.40;99.90;;;;;;10410250;28;20224;-82
2022/12/05 00:55:36;;;;;;;36.03;19.20;;;0.40;99.90;;;;;;10407284;28;20206;-82
2022/12/05 01:01:08;;;;;;;37.50;19.13;;;0.40;99.90;;;;;;10447829;28;20255;-83
2022/12/05 01:06:30;;;;;;;60.23;19.23;;;0.20;99.90;;;;;;10457472;28;20234;-83
2022/12/05 01:11:52;;;;;;;38.63;22.97;;;0.30;99.90;;;;;;10488961;28;20206;-83
2022/12/05 01:17:13;;;;;;;50.70;21.77;;;0.20;99.90;;;;;;10474818;28;20206;-82
2022/12/05 01:22:34;;;;;;;34.90;20.03;;;0.30;99.90;;;;;;10488510;28;20548;-82
2022/12/05 01:27:55;;;;;;;35.73;19.70;;;0.30;99.90;;;;;;10463128;28;20280;-83
2022/12/05 01:33:17;;;;;;;35.47;19.33;;;0.30;99.90;;;;;;10461198;28;20381;-83
2022/12/05 01:38:42;;;;;;;32.67;19.10;;;0.30;99.90;;;;;;10463756;28;20197;-81
2022/12/05 01:44:27;;;;;;;35.17;19.07;;;0.30;99.90;;;;;;10446618;28;20231;-81
2022/12/05 01:49:49;;;;;;;39.73;20.13;;;0.20;99.90;;;;;;10449550;28;20188;-81
2022/12/05 01:55:13;;;;;;;34.30;20.03;;;0.30;99.90;;;;;;10449227;28;20198;-84
2022/12/05 02:00:35;;;;;;;33.27;20.03;;;0.20;99.90;;;;;;10446194;28;20209;-81
2022/12/05 02:05:58;;;;;;;38.57;20.50;;;0.20;99.90;;;;;;10465758;28;20219;-81
2022/12/05 02:11:22;;;;;;;36.43;20.23;;;0.20;99.90;;;;;;10473726;28;20198;-82
2022/12/05 02:17:25;;;;;;;31.33;18.70;;;0.30;99.90;;;;;;10487382;28;20270;-83
2022/12/05 02:23:16;;;;;;;37.77;19.27;;;0.30;99.90;;;;;;10473285;28;20324;-82
2022/12/05 02:28:49;;;;;;;34.80;18.07;;;0.20;99.90;;;;;;10443023;28;20203;-82
2022/12/05 02:34:37;;;;;;;43.10;21.80;;;0.20;99.90;;;;;;10418146;28;20201;-82
2022/12/05 02:40:21;;;;;;;35.40;19.40;;;0.10;99.90;;;;;;10449232;28;20197;-82
2022/12/05 02:45:46;;;;;;;33.27;18.03;;;0.10;99.90;;;;;;10473001;28;20242;-82
2022/12/05 02:51:10;;;;;;;35.23;20.93;;;0.20;99.90;;;;;;10459175;28;20208;-82
2022/12/05 02:56:34;;;;;;;38.27;21.17;;;0.20;99.90;;;;;;10453307;28;20429;-84
2022/12/05 03:01:56;;;;;;;38.00;22.37;;;0.20;99.90;;;;;;10452501;28;20281;-82
2022/12/05 03:07:20;;;;;;;33.30;19.80;;;0.20;99.90;;;;;;10438736;28;20209;-84
2022/12/05 03:12:47;;;;;;;32.53;17.97;;;0.30;99.90;;;;;;10452311;28;20202;-84
2022/12/05 03:18:19;;;;;;;33.07;18.67;;;0.20;99.90;;;;;;10452150;28;20206;-83
2022/12/05 03:23:54;;;;;;;36.50;20.07;;;0.00;99.90;;;;;;10454925;28;20240;-82
2022/12/05 03:30:02;;;;;;;36.27;20.13;;;0.00;99.90;;;;;;10430792;28;20194;-82
2022/12/05 03:35:42;;;;;;;32.20;18.90;;;0.10;99.90;;;;;;10477417;28;20224;-83
2022/12/05 03:41:36;;;;;;;34.10;19.97;;;0.10;99.90;;;;;;10441581;28;20199;-84
2022/12/05 03:47:03;;;;;;;38.97;20.00;;;0.10;99.90;;;;;;10447383;28;20300;-82
2022/12/05 03:52:37;;;;;;;33.73;19.80;;;0.10;99.90;;;;;;10450353;28;20253;-83
2022/12/05 03:58:23;;;;;;;35.13;20.80;;;0.10;99.90;;;;;;10467273;28;20201;-82
2022/12/05 04:03:56;;;;;;;42.30;22.63;;;0.10;99.90;;;;;;10437285;28;20540;-82
2022/12/05 04:09:33;;;;;;;55.87;25.27;;;0.00;99.90;;;;;;10479134;28;20200;-81
2022/12/05 04:15:13;;;;;;;37.43;21.60;;;0.00;99.90;;;;;;10493729;28;20502;-82
2022/12/05 04:26:27;;;;;;;42.23;23.70;;;0.20;99.90;;;;;;10495244;28;20261;-82
2022/12/05 04:31:55;;;;;;;42.00;23.53;;;0.20;99.90;;;;;;10466165;28;20516;-82
2022/12/05 04:37:20;;;;;;;41.17;24.27;;;0.30;99.90;;;;;;10465753;28;20380;-82
2022/12/05 04:42:44;;;;;;;36.30;21.80;;;0.30;99.90;;;;;;10434665;28;20245;-82
2022/12/05 04:48:12;;;;;;;38.47;23.33;;;0.30;99.90;;;;;;10434608;28;20211;-81
2022/12/05 04:53:34;;;;;;;37.60;21.70;;;0.20;99.90;;;;;;10448072;28;20279;-82
2022/12/05 04:58:56;;;;;;;37.97;21.37;;;0.20;99.90;;;;;;10448116;28;20551;-84
2022/12/05 05:04:26;;;;;;;38.80;21.47;;;0.10;99.90;;;;;;10440118;28;20257;-83
2022/12/05 05:09:47;;;;;;;35.07;20.63;;;0.10;99.90;;;;;;10474815;28;20208;-82
2022/12/05 05:15:09;;;;;;;33.97;20.03;;;0.20;99.90;;;;;;10474997;28;20207;-83
2022/12/05 05:20:30;;;;;;;29.63;18.93;;;0.20;99.90;;;;;;10488706;28;20253;-82
2022/12/05 05:25:53;;;;;;;37.23;20.57;;;0.20;99.90;;;;;;10480412;28;20267;-83
2022/12/05 05:31:14;;;;;;;33.97;19.63;;;0.10;99.90;;;;;;10463944;28;20438;-81
2022/12/05 05:36:36;;;;;;;33.90;20.37;;;0.10;99.90;;;;;;10447348;28;20201;-83
2022/12/05 05:41:58;;;;;;;38.07;19.00;;;0.10;99.90;;;;;;10460879;28;20495;-81
2022/12/05 05:47:19;;;;;;;29.67;16.70;;;0.10;99.90;;;;;;10450350;28;20197;-83
2022/12/05 05:52:40;;;;;;;28.50;16.47;;;0.10;99.90;;;;;;10446752;28;20485;-84
2022/12/05 05:58:02;;;;;;;30.90;16.30;;;0.10;99.90;;;;;;10449997;28;20200;-83
2022/12/05 06:03:23;;;;;;;39.13;20.30;;;0.20;99.90;;;;;;10447588;28;20298;-86
2022/12/05 06:08:44;;;;;;;31.97;18.77;;;0.20;99.90;;;;;;10447218;28;20197;-83
2022/12/05 06:14:06;;;;;;;31.80;18.87;;;0.20;99.90;;;;;;10450105;28;20280;-86
2022/12/05 06:19:27;;;;;;;36.50;19.73;;;0.20;99.90;;;;;;10442213;28;20220;-82
2022/12/05 06:24:48;;;;;;;30.97;19.43;;;0.20;99.90;;;;;;10441129;28;20462;-81
2022/12/05 06:30:10;;;;;;;33.53;19.97;;;0.20;99.90;;;;;;10430090;28;20395;-87
2022/12/05 06:35:31;;;;;;;41.27;23.17;;;0.30;99.90;;;;;;10443140;28;20256;-85
2022/12/05 06:40:53;;;;;;;43.93;24.53;;;0.40;99.90;;;;;;10456196;28;20432;-80
2022/12/05 06:46:15;;;;;;;33.63;18.70;;;0.50;99.90;;;;;;10472589;28;20220;-81
2022/12/05 06:51:37;;;;;;;32.70;18.23;;;0.40;99.90;;;;;;10455513;28;20198;-90
2022/12/05 06:56:58;;;;;;;31.27;16.30;;;0.30;99.90;;;;;;10454959;28;20220;-80
2022/12/05 07:02:19;;;;;;;36.47;20.23;;;0.20;99.90;;;;;;10439405;28;20221;-81
2022/12/05 07:07:40;;;;;;;39.20;21.07;;;0.30;99.90;;;;;;10485439;28;20207;-81
2022/12/05 07:13:01;;;;;;;39.83;22.53;;;0.30;99.90;;;;;;10494002;28;20230;-80
2022/12/05 07:18:23;;;;;;;38.10;21.90;;;0.20;99.90;;;;;;10479967;28;20195;-81
2022/12/05 07:23:45;;;;;;;39.27;21.30;;;0.20;99.90;;;;;;10493686;28;20245;-83
2022/12/05 07:29:06;;;;;;;40.00;21.53;;;0.20;99.90;;;;;;10420179;28;20228;-82
2022/12/05 07:34:27;;;;;;;38.63;20.60;;;0.20;99.90;;;;;;10426610;28;20204;-80
2022/12/05 07:39:50;;;;;;;40.27;22.67;;;0.30;99.90;;;;;;10452264;28;20207;-81
2022/12/05 07:45:11;;;;;;;37.23;20.63;;;0.30;99.90;;;;;;10469129;28;20304;-90
2022/12/05 07:50:32;;;;;;;46.80;22.57;;;0.30;99.90;;;;;;10438492;28;20569;-85
2022/12/05 07:55:54;;;;;;;44.10;23.83;;;0.30;99.90;;;;;;10451651;28;20204;-83
2022/12/05 08:01:17;;;;;;;39.30;22.83;;;0.30;99.90;;;;;;10452125;28;20203;-84
2022/12/05 08:06:38;;;;;;;40.30;21.90;;;0.30;99.90;;;;;;10491773;28;20270;-85
2022/12/05 08:11:59;;;;;;;34.77;19.50;;;0.30;99.90;;;;;;10478187;28;20201;-86
2022/12/05 08:17:21;;;;;;;35.70;19.43;;;0.30;99.90;;;;;;10408222;28;20584;-83
2022/12/05 08:22:42;;;;;;;40.43;21.83;;;0.30;99.90;;;;;;10485887;28;20248;-83
2022/12/05 08:28:03;;;;;;;38.13;22.20;;;0.20;99.90;;;;;;10445298;28;20200;-84
2022/12/05 08:33:25;;;;;;;44.10;23.67;;;0.20;99.90;;;;;;10444282;28;20206;-83
2022/12/05 08:38:46;;;;;;;47.67;29.10;;;0.20;99.90;;;;;;10471054;28;20187;-83
2022/12/05 08:44:09;;;;;;;60.20;35.20;;;0.20;99.90;;;;;;10427162;28;20229;-84
2022/12/05 08:49:30;;;;;;;47.70;27.60;;;0.20;99.90;;;;;;10460043;28;20280;-84
2022/12/05 08:54:51;;;;;;;44.97;25.57;;;0.20;99.90;;;;;;10429860;28;20205;-87
2022/12/05 09:00:14;;;;;;;36.93;20.07;;;0.20;99.90;;;;;;10450743;28;20193;-83
2022/12/05 09:05:35;;;;;;;37.87;20.97;;;0.30;99.90;;;;;;10441853;28;20304;-84
2022/12/05 09:10:57;;;;;;;37.83;22.80;;;0.30;99.90;;;;;;10460599;28;20275;-84
2022/12/05 09:16:24;;;;;;;38.63;21.13;;;0.30;99.90;;;;;;10449851;28;20197;-79
2022/12/05 09:21:45;;;;;;;47.03;23.53;;;0.30;99.90;;;;;;10431678;28;20205;-84
2022/12/05 09:27:07;;;;;;;37.93;20.27;;;0.40;99.90;;;;;;10452659;28;20259;-83
2022/12/05 09:32:29;;;;;;;56.97;26.83;;;0.40;99.90;;;;;;10448179;28;20258;-83
2022/12/05 09:37:51;;;;;;;44.97;22.60;;;0.40;99.90;;;;;;10423109;28;20266;-83
2022/12/05 09:43:30;;;;;;;55.57;27.80;;;0.40;99.90;;;;;;10419048;28;20226;-83
2022/12/05 09:48:54;;;;;;;48.53;26.13;;;0.40;99.90;;;;;;10423796;28;20277;-81
2022/12/05 09:54:18;;;;;;;47.50;23.00;;;0.40;99.90;;;;;;10415330;28;20217;-83
2022/12/05 09:59:40;;;;;;;57.60;26.37;;;0.30;99.90;;;;;;10458577;28;20202;-83
2022/12/05 10:05:08;;;;;;;57.60;24.97;;;0.30;99.90;;;;;;10450789;28;20231;-86
2022/12/05 10:10:52;;;;;;;50.97;25.67;;;0.30;99.90;;;;;;10427759;28;20180;-82
2022/12/05 10:16:40;;;;;;;43.53;21.73;;;0.30;99.90;;;;;;10443407;28;20200;-82
2022/12/05 10:22:13;;;;;;;39.50;20.27;;;0.30;99.90;;;;;;10426333;28;20233;-83
2022/12/05 10:27:47;;;;;;;53.50;24.77;;;0.30;99.90;;;;;;10443560;28;20225;-83
2022/12/05 10:33:21;;;;;;;43.90;22.83;;;0.10;99.90;;;;;;10398800;28;20512;-84
2022/12/05 10:38:43;;;;;;;39.33;20.73;;;0.20;99.90;;;;;;10442370;28;20209;-83
2022/12/05 10:44:05;;;;;;;43.37;22.10;;;0.20;99.90;;;;;;10405938;28;20230;-82
2022/12/05 10:49:26;;;;;;;42.83;22.63;;;0.20;99.90;;;;;;10412388;28;20220;-83
2022/12/05 10:55:05;;;;;;;49.27;23.73;;;0.20;99.90;;;;;;10433237;28;20275;-82
2022/12/05 11:00:29;;;;;;;42.77;22.97;;;0.20;99.90;;;;;;10423745;28;20252;-90
2022/12/05 11:05:52;;;;;;;47.33;23.87;;;0.20;99.90;;;;;;10466387;28;20274;-80
2022/12/05 11:11:27;;;;;;;50.47;24.17;;;0.20;99.90;;;;;;10476966;28;20771;-88
2022/12/05 11:16:54;;;;;;;40.40;21.80;;;0.20;99.90;;;;;;10458236;28;20214;-88
2022/12/05 11:22:16;;;;;;;44.63;22.13;;;0.30;99.90;;;;;;10440042;28;20244;-82
2022/12/05 11:27:37;;;;;;;55.27;26.47;;;0.30;99.90;;;;;;10463903;28;20369;-84
2022/12/05 11:33:19;;;;;;;45.67;23.27;;;0.20;99.90;;;;;;10440563;28;20430;-85
2022/12/05 11:38:41;;;;;;;47.47;23.43;;;0.20;99.90;;;;;;10448972;28;20201;-87
2022/12/05 11:44:02;;;;;;;50.83;27.60;;;0.20;99.90;;;;;;10431369;28;20526;-82
2022/12/05 11:49:58;;;;;;;46.30;26.73;;;0.20;99.90;;;;;;10421572;28;20395;-83
2022/12/05 11:55:19;;;;;;;64.63;34.47;;;0.20;99.90;;;;;;10424152;28;20241;-84
2022/12/05 12:00:44;;;;;;;47.60;25.80;;;0.20;99.90;;;;;;10426387;28;20206;-88
2022/12/05 12:06:20;;;;;;;47.83;25.77;;;0.30;99.90;;;;;;10421957;28;20230;-86
2022/12/05 12:11:53;;;;;;;41.40;22.97;;;0.20;99.90;;;;;;10420151;28;20407;-85
2022/12/05 12:17:24;;;;;;;46.13;23.97;;;0.20;99.90;;;;;;10408321;28;20222;-82
2022/12/05 12:23:11;;;;;;;47.77;25.13;;;0.20;99.90;;;;;;10460267;28;20637;-84
2022/12/05 12:28:41;;;;;;;55.20;28.73;;;0.20;99.90;;;;;;10459015;28;20204;-83
2022/12/05 12:34:02;;;;;;;48.77;27.00;;;0.10;99.90;;;;;;10460643;28;20520;-84
2022/12/05 12:39:36;;;;;;;49.40;28.50;;;0.10;99.90;;;;;;10462461;28;20196;-82
2022/12/05 12:45:13;;;;;;;45.73;25.77;;;0.20;99.90;;;;;;10479389;28;20227;-80
2022/12/05 12:50:41;;;;;;;42.67;24.23;;;0.30;99.90;;;;;;10414065;28;20513;-88
2022/12/05 12:56:37;;;;;;;46.77;25.20;;;0.20;99.90;;;;;;10422791;28;20240;-87
2022/12/05 13:02:09;;;;;;;47.13;25.10;;;0.20;99.90;;;;;;10415429;28;20222;-81
2022/12/05 13:08:09;;;;;;;52.27;26.27;;;0.20;99.90;;;;;;10447497;28;20238;-82
2022/12/05 13:13:35;;;;;;;52.53;29.53;;;0.20;99.90;;;;;;10333064;28;20201;-88
2022/12/05 13:18:57;;;;;;;58.00;28.40;;;0.30;99.90;;;;;;10320190;28;20315;-84
2022/12/05 13:24:22;;;;;;;47.67;26.13;;;0.20;99.90;;;;;;10304758;28;20357;-83
2022/12/05 13:29:52;;;;;;;60.70;29.37;;;0.10;99.90;;;;;;10328181;28;20489;-80
2022/12/05 13:46:48;;;;;;;56.43;30.40;;;0.30;99.90;;;;;;10440467;28;20230;-85
2022/12/05 13:52:23;;;;;;;56.33;28.57;;;0.30;99.90;;;;;;10443362;28;20200;-86
2022/12/05 13:57:51;;;;;;;56.27;28.67;;;0.40;99.90;;;;;;10450048;28;20234;-81
2022/12/05 14:03:15;;;;;;;52.30;25.67;;;0.30;99.90;;;;;;10452006;28;20499;-85
2022/12/05 14:08:38;;;;;;;53.00;26.67;;;0.30;99.90;;;;;;10457032;28;20201;-84
2022/12/05 14:13:59;;;;;;;57.13;29.53;;;0.30;99.90;;;;;;10445668;28;20210;-81
2022/12/05 14:19:59;;;;;;;63.93;33.13;;;0.20;99.90;;;;;;10422997;28;20514;-80
2022/12/05 14:25:31;;;;;;;54.27;29.50;;;0.20;99.90;;;;;;10469024;28;20249;-81
2022/12/05 14:31:14;;;;;;;52.50;28.23;;;0.20;99.90;;;;;;10405501;28;20210;-82
2022/12/05 14:36:37;;;;;;;60.07;31.03;;;0.30;99.90;;;;;;10460419;28;20209;-84
2022/12/05 14:42:06;;;;;;;55.33;30.37;;;0.30;99.90;;;;;;10437693;28;20535;-88
2022/12/05 14:47:31;;;;;;;62.80;35.10;;;0.30;99.90;;;;;;10458785;28;20231;-87
2022/12/05 14:53:20;;;;;;;62.87;34.50;;;0.30;99.90;;;;;;10451741;28;20199;-83
2022/12/05 14:58:55;;;;;;;76.77;39.20;;;0.30;99.90;;;;;;10459248;28;20213;-88
2022/12/05 15:04:38;;;;;;;72.87;38.80;;;0.20;99.90;;;;;;10449005;28;20253;-85
2022/12/05 15:10:15;;;;;;;66.37;34.57;;;0.20;99.90;;;;;;10447651;28;20248;-79
2022/12/05 15:15:42;;;;;;;65.07;32.40;;;0.30;99.90;;;;;;10449556;28;20197;-86
2022/12/05 15:21:38;;;;;;;66.63;36.40;;;0.30;99.90;;;;;;10433019;28;20252;-86
2022/12/05 15:27:03;;;;;;;68.37;34.73;;;0.30;99.90;;;;;;10407218;28;20256;-83
2022/12/05 15:32:26;;;;;;;58.50;30.67;;;0.30;99.90;;;;;;10444356;28;20212;-83
2022/12/05 15:38:12;;;;;;;64.23;33.20;;;0.30;99.90;;;;;;10421342;28;20194;-85
2022/12/05 15:43:36;;;;;;;62.17;32.93;;;0.30;99.90;;;;;;10393132;28;20295;-86
2022/12/05 15:48:59;;;;;;;59.77;31.27;;;0.40;99.90;;;;;;10431472;28;20210;-84
2022/12/05 15:54:35;;;;;;;59.07;31.27;;;0.40;99.90;;;;;;10424615;28;20202;-87
2022/12/05 16:00:04;;;;;;;70.67;35.07;;;0.40;99.90;;;;;;10438229;28;20205;-83
2022/12/05 16:05:38;;;;;;;64.47;36.87;;;0.30;99.90;;;;;;10425210;28;20587;-87
2022/12/05 16:11:10;;;;;;;70.40;36.07;;;0.40;99.90;;;;;;10425470;28;20390;-86
2022/12/05 16:16:37;;;;;;;68.73;36.27;;;0.40;99.90;;;;;;10423458;28;20198;-84
2022/12/05 16:22:07;;;;;;;62.20;33.60;;;0.40;99.90;;;;;;10437548;28;20257;-86
2022/12/05 16:27:33;;;;;;;57.83;32.07;;;0.40;99.90;;;;;;10450067;28;20231;-82
2022/12/05 16:33:14;;;;;;;68.97;34.10;;;0.40;99.90;;;;;;10449918;28;20197;-84
2022/12/05 16:38:36;;;;;;;66.87;33.63;;;0.50;99.90;;;;;;10449473;28;20199;-86
2022/12/05 16:43:57;;;;;;;61.60;33.10;;;0.40;99.90;;;;;;10409048;28;20504;-85
2022/12/05 16:49:32;;;;;;;66.30;35.53;;;0.40;99.90;;;;;;10409475;28;20207;-82
2022/12/05 16:54:53;;;;;;;69.43;38.83;;;0.50;99.90;;;;;;10394991;28;20207;-82
2022/12/05 17:00:15;;;;;;;71.03;36.50;;;0.40;99.90;;;;;;10418849;28;20220;-83
2022/12/05 17:05:36;;;;;;;72.37;38.30;;;0.50;99.90;;;;;;10467642;28;20238;-82
2022/12/05 17:11:00;;;;;;;62.57;35.13;;;0.50;99.90;;;;;;10436134;28;20485;-83
2022/12/05 17:16:23;;;;;;;73.03;38.23;;;0.40;99.90;;;;;;10447988;28;20423;-83
2022/12/05 17:21:44;;;;;;;103.07;42.60;;;0.40;99.90;;;;;;10466164;28;20202;-83
2022/12/05 17:27:10;;;;;;;104.93;43.93;;;0.40;99.90;;;;;;10450364;28;20245;-83
2022/12/05 17:32:31;;;;;;;77.17;37.57;;;0.40;99.90;;;;;;10446898;28;20387;-82
2022/12/05 17:37:53;;;;;;;85.30;40.33;;;0.40;99.90;;;;;;10464026;28;20189;-83
2022/12/05 17:43:14;;;;;;;75.53;36.47;;;0.40;99.90;;;;;;10447490;28;20500;-83
2022/12/05 17:48:37;;;;;;;78.40;39.60;;;0.40;99.90;;;;;;10447235;28;20227;-82
2022/12/05 17:53:58;;;;;;;86.33;44.53;;;0.40;99.90;;;;;;10447090;28;20204;-83
2022/12/05 17:59:19;;;;;;;72.40;38.20;;;0.50;99.90;;;;;;10446608;28;20193;-84
2022/12/05 18:04:40;;;;;;;83.23;42.80;;;0.50;99.90;;;;;;10394513;28;20249;-83
2022/12/05 18:10:04;;;;;;;71.30;38.77;;;0.60;99.90;;;;;;10449221;28;20227;-82
2022/12/05 18:15:28;;;;;;;76.87;37.87;;;0.60;99.90;;;;;;10458063;28;20480;-83
2022/12/05 18:20:49;;;;;;;65.87;36.13;;;0.70;99.90;;;;;;10455109;28;20219;-82
2022/12/05 18:26:10;;;;;;;74.20;37.13;;;0.70;99.90;;;;;;10471367;28;20249;-83
2022/12/05 18:31:32;;;;;;;71.07;36.83;;;0.60;99.90;;;;;;10416797;28;20205;-82
2022/12/05 18:36:54;;;;;;;62.73;33.10;;;0.60;99.90;;;;;;10419602;28;20205;-82
2022/12/05 18:42:16;;;;;;;69.40;34.40;;;0.70;99.90;;;;;;10454337;28;20199;-83
2022/12/05 18:47:37;;;;;;;58.17;31.33;;;0.70;99.90;;;;;;10470540;28;20447;-83
2022/12/05 18:52:58;;;;;;;59.53;29.60;;;0.70;99.90;;;;;;10457413;28;20194;-83
2022/12/05 18:58:19;;;;;;;64.87;31.50;;;0.70;99.90;;;;;;10470021;28;20189;-83
2022/12/05 19:03:41;;;;;;;59.90;31.17;;;0.70;99.90;;;;;;10440055;28;20205;-86
2022/12/05 19:09:08;;;;;;;57.37;31.47;;;0.70;99.90;;;;;;10439162;28;20232;-84
2022/12/05 19:14:31;;;;;;;63.87;31.10;;;0.80;99.90;;;;;;10452683;28;20385;-84
2022/12/05 19:19:56;;;;;;;66.13;36.37;;;0.70;99.90;;;;;;10442425;28;20366;-82
2022/12/05 19:25:17;;;;;;;54.20;31.97;;;0.80;99.90;;;;;;10492481;28;20238;-82
2022/12/05 19:30:38;;;;;;;54.97;29.57;;;0.80;99.90;;;;;;10450295;28;20191;-83
2022/12/05 19:36:05;;;;;;;51.93;28.67;;;0.80;99.90;;;;;;10486305;28;20183;-85
2022/12/05 19:41:28;;;;;;;46.77;25.83;;;0.80;99.90;;;;;;10446642;28;20209;-82
2022/12/05 19:46:50;;;;;;;45.13;27.57;;;0.80;99.90;;;;;;10454513;28;20214;-83
2022/12/05 19:52:11;;;;;;;55.73;32.20;;;0.80;99.90;;;;;;10483441;28;20194;-84
2022/12/05 19:57:35;;;;;;;50.93;29.77;;;0.90;99.90;;;;;;10438743;28;20269;-83
2022/12/05 20:02:56;;;;;;;56.93;28.93;;;0.90;99.90;;;;;;10429245;28;20363;-83
2022/12/05 20:08:18;;;;;;;55.10;29.17;;;0.90;99.90;;;;;;10451446;28;20536;-83
2022/12/05 20:13:40;;;;;;;55.83;28.90;;;0.90;99.90;;;;;;10451543;28;20195;-83
2022/12/05 20:19:08;;;;;;;48.13;26.37;;;0.90;99.90;;;;;;10480042;28;20198;-83
2022/12/05 20:24:29;;;;;;;53.10;27.60;;;0.90;99.90;;;;;;10491031;28;20563;-87
2022/12/05 20:29:51;;;;;;;51.30;28.10;;;0.90;99.90;;;;;;10461395;28;20253;-83
2022/12/05 20:35:12;;;;;;;70.00;34.67;;;0.90;99.90;;;;;;10436007;28;20217;-85
2022/12/05 20:40:33;;;;;;;76.17;37.03;;;1.00;99.90;;;;;;10448944;28;20194;-83
2022/12/05 20:45:55;;;;;;;70.87;35.23;;;0.90;99.90;;;;;;10449634;28;20232;-84
2022/12/05 20:51:19;;;;;;;62.97;32.03;;;1.00;99.90;;;;;;10410631;28;20223;-84
2022/12/05 20:56:41;;;;;;;55.37;28.00;;;1.00;99.90;;;;;;10427626;28;20192;-84
2022/12/05 21:02:02;;;;;;;55.03;28.70;;;1.00;99.90;;;;;;10448732;28;20451;-83
2022/12/05 21:07:23;;;;;;;48.13;27.53;;;1.00;99.90;;;;;;10465068;28;20223;-83
2022/12/05 21:12:45;;;;;;;51.33;26.63;;;1.00;99.90;;;;;;10464941;28;20187;-83
2022/12/05 21:18:06;;;;;;;56.03;27.80;;;1.00;99.90;;;;;;10464561;28;20255;-84
2022/12/05 21:23:28;;;;;;;68.30;32.83;;;1.00;99.90;;;;;;10447751;28;20238;-84
2022/12/05 21:28:49;;;;;;;59.17;30.17;;;1.00;99.90;;;;;;10434058;28;20234;-85
2022/12/05 21:34:19;;;;;;;52.63;27.13;;;1.00;99.90;;;;;;10447545;28;20194;-84
2022/12/05 21:39:40;;;;;;;53.20;28.07;;;1.00;99.90;;;;;;10450314;28;20504;-83
2022/12/05 21:45:01;;;;;;;64.53;31.70;;;1.00;99.90;;;;;;10449899;28;20222;-83
2022/12/05 21:50:23;;;;;;;48.50;27.77;;;1.00;99.90;;;;;;10459461;28;20219;-85
2022/12/05 21:55:44;;;;;;;38.43;23.07;;;1.10;99.90;;;;;;10477571;28;20195;-85
2022/12/05 22:01:06;;;;;;;40.83;22.77;;;1.10;99.90;;;;;;10448120;28;20516;-84
2022/12/05 22:06:32;;;;;;;40.70;23.23;;;1.10;99.90;;;;;;10446977;28;20257;-83
2022/12/05 22:11:53;;;;;;;40.03;24.73;;;1.10;99.90;;;;;;10406249;28;20270;-84
2022/12/05 22:17:14;;;;;;;43.67;25.67;;;1.10;99.90;;;;;;10412880;28;20198;-82
2022/12/05 22:22:35;;;;;;;38.37;22.17;;;1.10;99.90;;;;;;10447679;28;20305;-83
2022/12/05 22:27:57;;;;;;;43.00;24.50;;;1.10;99.90;;;;;;10457423;28;20297;-83
2022/12/05 22:33:19;;;;;;;38.67;23.27;;;1.10;99.90;;;;;;10435150;28;20214;-83
2022/12/05 22:38:44;;;;;;;39.80;23.43;;;1.10;99.90;;;;;;10447160;28;20201;-83
2022/12/05 22:44:05;;;;;;;40.10;23.03;;;1.10;99.90;;;;;;10466095;28;20191;-84
2022/12/05 22:49:27;;;;;;;39.57;22.33;;;1.20;99.90;;;;;;10448763;28;20452;-85
2022/12/05 22:54:48;;;;;;;53.57;30.90;;;1.20;99.90;;;;;;10435859;28;20212;-83
2022/12/05 23:00:10;;;;;;;54.37;30.63;;;1.20;99.90;;;;;;10469815;28;20207;-84
2022/12/05 23:05:37;;;;;;;40.93;22.47;;;1.20;99.90;;;;;;10471528;28;20218;-84
2022/12/05 23:11:03;;;;;;;117.40;49.77;;;1.10;99.90;;;;;;10439208;28;20488;-85
2022/12/05 23:16:27;;;;;;;55.20;28.30;;;1.20;99.90;;;;;;10452561;28;20225;-83
2022/12/05 23:21:48;;;;;;;40.97;22.43;;;1.20;99.90;;;;;;10507615;28;20213;-83
2022/12/05 23:27:09;;;;;;;50.00;28.10;;;1.20;99.90;;;;;;10490705;28;20239;-83
2022/12/05 23:32:30;;;;;;;43.30;26.37;;;1.20;99.90;;;;;;10465440;28;20286;-83
2022/12/05 23:37:52;;;;;;;41.07;23.77;;;1.30;99.90;;;;;;10469059;28;20191;-84
2022/12/05 23:43:13;;;;;;;42.03;25.87;;;1.30;99.90;;;;;;10438213;28;20191;-85
2022/12/05 23:48:35;;;;;;;40.00;24.17;;;1.30;99.90;;;;;;10451159;28;20297;-84
2022/12/05 23:53:59;;;;;;;38.33;22.40;;;1.30;99.90;;;;;;10454501;28;20539;-84
2022/12/05 23:59:20;;;;;;;42.90;23.97;;;1.40;99.90;;;;;;10454019;28;20196;-84
